PWSweather.com
Personal Weather Stations
Station Observations

SkegnessGB

Lat: 53.147585, Lon: 0.345774

Elevation: 18

Station Type: Fine Offset WH3080

http://www.skegnessweather.info/

Latest ConditionsUpdated 5:50:00 PM GMT Saturday, May 26, 2018
Currently Today's Max Today's Min Today's Average
Temperature 55.6°F13.1°C 65.3°F18.5°C 48.9°F9.4°C 55.4°F13.0°C
Dew Point 50.8°F10.4°C 54.9°F12.7°C 48.9°F9.4°C 51.2°F10.7°C
Winds 10.1 mph NE16.3 kmh NE 12.8 mph NE20.6 kmh NE - 6.4 mph 10.3 kmh
Wind Gusts 10.1 mph16.3 kmh 15.0 mph24.1 kmh - -
Humidity 84% 100% 63% 87%
Pressure 30.21 in1023.0 mb 30.23 in1023.7 mb 30.16 in1021.3 mb -
Hour Temp Dew Point Humidity Winds Wind Gusts Pressure Precip Precip Rate Daily Precip Total
05:50 PM 55.6°F13.1°C 50.8°F10.4°C 84% 10.1 mph NE16.3 kmh NE 10.1 mph16.3 kmh 30.21 in1023.0 mb 0.00 in0.0 mm 0.00 in0.0 mm 0.00 in0.0 mm
05:40 PM 55.8°F13.2°C 50.7°F10.4°C 83% 11.6 mph NNE18.7 kmh NNE 11.8 mph19.0 kmh 30.21 in1023.0 mb 0.00 in0.0 mm 0.00 in0.0 mm 0.00 in0.0 mm
05:30 PM 55.9°F13.3°C 50.5°F10.3°C 82% 10.8 mph NE17.4 kmh NE 11.8 mph19.0 kmh 30.20 in1022.7 mb 0.00 in0.0 mm 0.00 in0.0 mm 0.00 in0.0 mm
05:20 PM 56.5°F13.6°C 50.7°F10.4°C 81% 10.4 mph NE16.7 kmh NE 12.5 mph20.1 kmh 30.21 in1023.0 mb 0.00 in0.0 mm 0.00 in0.0 mm 0.00 in0.0 mm
05:10 PM 57.0°F13.9°C 50.9°F10.5°C 80% 11.4 mph NE18.3 kmh NE 11.8 mph19.0 kmh 30.21 in1023.0 mb 0.00 in0.0 mm 0.00 in0.0 mm 0.00 in0.0 mm
05:00 PM 57.0°F13.9°C 50.6°F10.3°C 79% 11.2 mph NNE18.0 kmh NNE 11.8 mph19.0 kmh 30.21 in1023.0 mb 0.00 in0.0 mm 0.00 in0.0 mm 0.00 in0.0 mm
04:50 PM 57.0°F13.9°C 50.9°F10.5°C 80% 9.9 mph NE15.9 kmh NE 14.3 mph23.0 kmh 30.21 in1023.0 mb 0.00 in0.0 mm 0.00 in0.0 mm 0.00 in0.0 mm
04:40 PM 56.8°F13.8°C 50.4°F10.2°C 79% 10.4 mph NNE16.7 kmh NNE 15.0 mph24.1 kmh 30.22 in1023.4 mb 0.00 in0.0 mm 0.00 in0.0 mm 0.00 in0.0 mm
04:30 PM 57.4°F14.1°C 50.2°F10.1°C 77% 10.5 mph NNE16.9 kmh NNE 15.0 mph24.1 kmh 30.22 in1023.4 mb 0.00 in0.0 mm 0.00 in0.0 mm 0.00 in0.0 mm
04:20 PM 57.7°F14.3°C 50.6°F10.3°C 77% 10.3 mph NNE16.6 kmh NNE 11.8 mph19.0 kmh 30.22 in1023.4 mb 0.00 in0.0 mm 0.00 in0.0 mm 0.00 in0.0 mm
04:10 PM 58.6°F14.8°C 50.7°F10.4°C 75% 12.8 mph NE20.6 kmh NE 11.8 mph19.0 kmh 30.22 in1023.4 mb 0.00 in0.0 mm 0.00 in0.0 mm 0.00 in0.0 mm
04:00 PM 59.4°F15.2°C 51.8°F11.0°C 76% 11.1 mph NE17.9 kmh NE 11.8 mph19.0 kmh 30.22 in1023.4 mb 0.00 in0.0 mm 0.00 in0.0 mm 0.00 in0.0 mm
03:50 PM 60.1°F15.6°C 52.1°F11.2°C 75% 9.6 mph NNE15.4 kmh NNE 10.8 mph17.4 kmh 30.22 in1023.4 mb 0.00 in0.0 mm 0.00 in0.0 mm 0.00 in0.0 mm
03:40 PM 61.3°F16.3°C 52.2°F11.2°C 72% 9.0 mph N14.5 kmh N 11.8 mph19.0 kmh 30.22 in1023.4 mb 0.00 in0.0 mm 0.00 in0.0 mm 0.00 in0.0 mm
03:30 PM 61.7°F16.5°C 51.8°F11.0°C 70% 10.8 mph NE17.4 kmh NE 12.5 mph20.1 kmh 30.22 in1023.4 mb 0.00 in0.0 mm 0.00 in0.0 mm 0.00 in0.0 mm
03:20 PM 63.0°F17.2°C 52.2°F11.2°C 68% 8.7 mph NNE14.0 kmh NNE 11.8 mph19.0 kmh 30.21 in1023.0 mb 0.00 in0.0 mm 0.00 in0.0 mm 0.00 in0.0 mm
03:10 PM 63.3°F17.4°C 52.2°F11.2°C 67% 9.4 mph NE15.1 kmh NE 10.8 mph17.4 kmh 30.21 in1023.0 mb 0.00 in0.0 mm 0.00 in0.0 mm 0.00 in0.0 mm
03:00 PM 63.9°F17.7°C 51.9°F11.1°C 65% 10.1 mph N16.3 kmh N 13.3 mph21.4 kmh 30.22 in1023.4 mb 0.00 in0.0 mm 0.00 in0.0 mm 0.00 in0.0 mm
02:50 PM 64.6°F18.1°C 51.7°F10.9°C 63% 9.1 mph N14.6 kmh N 10.1 mph16.3 kmh 30.22 in1023.4 mb 0.00 in0.0 mm 0.00 in0.0 mm 0.00 in0.0 mm
02:40 PM 64.9°F18.3°C 52.0°F11.1°C 63% 8.0 mph NE12.9 kmh NE 8.4 mph13.5 kmh 30.23 in1023.7 mb 0.00 in0.0 mm 0.00 in0.0 mm 0.00 in0.0 mm
02:30 PM 65.3°F18.5°C 52.4°F11.3°C 63% 6.4 mph NE10.3 kmh NE 8.4 mph13.5 kmh 30.22 in1023.4 mb 0.00 in0.0 mm 0.00 in0.0 mm 0.00 in0.0 mm
02:20 PM 64.6°F18.1°C 52.5°F11.4°C 65% 7.7 mph NE12.4 kmh NE 9.1 mph14.6 kmh 30.22 in1023.4 mb 0.00 in0.0 mm 0.00 in0.0 mm 0.00 in0.0 mm
02:10 PM 64.6°F18.1°C 52.5°F11.4°C 65% 7.6 mph N12.2 kmh N 8.4 mph13.5 kmh 30.22 in1023.4 mb 0.00 in0.0 mm 0.00 in0.0 mm 0.00 in0.0 mm
02:00 PM 64.0°F17.8°C 51.6°F10.9°C 64% 6.5 mph NNE10.5 kmh NNE 10.1 mph16.3 kmh 30.22 in1023.4 mb 0.00 in0.0 mm 0.00 in0.0 mm 0.00 in0.0 mm
01:50 PM 63.5°F17.5°C 51.5°F10.8°C 65% 6.0 mph N9.7 kmh N 8.4 mph13.5 kmh 30.22 in1023.4 mb 0.00 in0.0 mm 0.00 in0.0 mm 0.00 in0.0 mm
01:40 PM 62.8°F17.1°C 51.2°F10.7°C 66% 7.1 mph NNE11.4 kmh NNE 10.8 mph17.4 kmh 30.22 in1023.4 mb 0.00 in0.0 mm 0.00 in0.0 mm 0.00 in0.0 mm
01:30 PM 62.2°F16.8°C 52.3°F11.3°C 70% 6.3 mph NNE10.1 kmh NNE 6.6 mph10.6 kmh 30.21 in1023.0 mb 0.00 in0.0 mm 0.00 in0.0 mm 0.00 in0.0 mm
01:20 PM 62.6°F17.0°C 53.4°F11.9°C 72% 5.6 mph N9.0 kmh N 7.6 mph12.2 kmh 30.22 in1023.4 mb 0.00 in0.0 mm 0.00 in0.0 mm 0.00 in0.0 mm
01:10 PM 62.1°F16.7°C 53.3°F11.8°C 73% 5.9 mph N9.5 kmh N 7.6 mph12.2 kmh 30.22 in1023.4 mb 0.00 in0.0 mm 0.00 in0.0 mm 0.00 in0.0 mm
01:00 PM 61.0°F16.1°C 52.6°F11.4°C 74% 6.7 mph NE10.8 kmh NE 8.4 mph13.5 kmh 30.22 in1023.4 mb 0.00 in0.0 mm 0.00 in0.0 mm 0.00 in0.0 mm
12:50 PM 60.8°F16.0°C 52.1°F11.2°C 73% 7.0 mph NE11.3 kmh NE 10.8 mph17.4 kmh 30.22 in1023.4 mb 0.00 in0.0 mm 0.00 in0.0 mm 0.00 in0.0 mm
12:40 PM 60.6°F15.9°C 53.7°F12.1°C 78% 7.4 mph NNE11.9 kmh NNE 10.8 mph17.4 kmh 30.22 in1023.4 mb 0.00 in0.0 mm 0.00 in0.0 mm 0.00 in0.0 mm
12:30 PM 59.2°F15.1°C 52.0°F11.1°C 77% 7.5 mph NNE12.1 kmh NNE 8.4 mph13.5 kmh 30.22 in1023.4 mb 0.00 in0.0 mm 0.00 in0.0 mm 0.00 in0.0 mm
12:20 PM 60.1°F15.6°C 52.5°F11.4°C 76% 6.3 mph NNE10.1 kmh NNE 7.6 mph12.2 kmh 30.22 in1023.4 mb 0.00 in0.0 mm 0.00 in0.0 mm 0.00 in0.0 mm
12:10 PM 60.4°F15.8°C 52.8°F11.6°C 76% 7.1 mph NE11.4 kmh NE 8.4 mph13.5 kmh 30.23 in1023.7 mb 0.00 in0.0 mm 0.00 in0.0 mm 0.00 in0.0 mm
12:00 PM 59.5°F15.3°C 53.0°F11.7°C 79% 7.7 mph NNE12.4 kmh NNE 9.1 mph14.6 kmh 30.22 in1023.4 mb 0.00 in0.0 mm 0.00 in0.0 mm 0.00 in0.0 mm
11:50 AM 60.8°F16.0°C 52.5°F11.4°C 74% 6.9 mph N11.1 kmh N 8.4 mph13.5 kmh 30.23 in1023.7 mb 0.00 in0.0 mm 0.00 in0.0 mm 0.00 in0.0 mm
11:40 AM 60.8°F16.0°C 52.8°F11.6°C 75% 9.1 mph N14.6 kmh N 10.8 mph17.4 kmh 30.22 in1023.4 mb 0.00 in0.0 mm 0.00 in0.0 mm 0.00 in0.0 mm
11:30 AM 61.5°F16.4°C 53.9°F12.2°C 76% 7.1 mph NE11.4 kmh NE 7.6 mph12.2 kmh 30.22 in1023.4 mb 0.00 in0.0 mm 0.00 in0.0 mm 0.00 in0.0 mm
11:20 AM 59.4°F15.2°C 54.2°F12.3°C 83% 8.7 mph NNE14.0 kmh NNE 9.1 mph14.6 kmh 30.22 in1023.4 mb 0.00 in0.0 mm 0.00 in0.0 mm 0.00 in0.0 mm
11:10 AM 58.6°F14.8°C 53.5°F11.9°C 83% 8.2 mph N13.2 kmh N 8.4 mph13.5 kmh 30.22 in1023.4 mb 0.00 in0.0 mm 0.00 in0.0 mm 0.00 in0.0 mm
11:00 AM 58.8°F14.9°C 53.3°F11.8°C 82% 7.5 mph NE12.1 kmh NE 8.4 mph13.5 kmh 30.22 in1023.4 mb 0.00 in0.0 mm 0.00 in0.0 mm 0.00 in0.0 mm
10:50 AM 59.2°F15.1°C 53.7°F12.1°C 82% 6.9 mph NNE11.1 kmh NNE 8.4 mph13.5 kmh 30.22 in1023.4 mb 0.00 in0.0 mm 0.00 in0.0 mm 0.00 in0.0 mm
10:40 AM 60.1°F15.6°C 54.2°F12.3°C 81% 6.4 mph NE10.3 kmh NE 6.6 mph10.6 kmh 30.22 in1023.4 mb 0.00 in0.0 mm 0.00 in0.0 mm 0.00 in0.0 mm
10:30 AM 60.4°F15.8°C 54.9°F12.7°C 82% 7.3 mph NNE11.7 kmh NNE 8.4 mph13.5 kmh 30.22 in1023.4 mb 0.00 in0.0 mm 0.00 in0.0 mm 0.00 in0.0 mm
10:20 AM 59.0°F15.0°C 53.8°F12.1°C 83% 7.4 mph NNE11.9 kmh NNE 8.4 mph13.5 kmh 30.22 in1023.4 mb 0.00 in0.0 mm 0.00 in0.0 mm 0.00 in0.0 mm
10:10 AM 58.3°F14.6°C 53.1°F11.7°C 83% 8.1 mph N13.0 kmh N 7.6 mph12.2 kmh 30.22 in1023.4 mb 0.00 in0.0 mm 0.00 in0.0 mm 0.00 in0.0 mm
10:00 AM 58.3°F14.6°C 53.5°F11.9°C 84% 7.0 mph N11.3 kmh N 8.4 mph13.5 kmh 30.21 in1023.0 mb 0.00 in0.0 mm 0.00 in0.0 mm 0.00 in0.0 mm
09:50 AM 57.4°F14.1°C 52.6°F11.4°C 84% 6.4 mph NNE10.3 kmh NNE 7.6 mph12.2 kmh 30.21 in1023.0 mb 0.00 in0.0 mm 0.00 in0.0 mm 0.00 in0.0 mm
09:40 AM 57.2°F14.0°C 52.7°F11.5°C 85% 5.9 mph NNE9.5 kmh NNE 10.1 mph16.3 kmh 30.21 in1023.0 mb 0.00 in0.0 mm 0.00 in0.0 mm 0.00 in0.0 mm
09:30 AM 56.3°F13.5°C 52.2°F11.2°C 86% 7.1 mph NNE11.4 kmh NNE 7.6 mph12.2 kmh 30.20 in1022.7 mb 0.00 in0.0 mm 0.00 in0.0 mm 0.00 in0.0 mm
09:20 AM 56.1°F13.4°C 51.7°F10.9°C 85% 7.7 mph NNE12.4 kmh NNE 9.1 mph14.6 kmh 30.20 in1022.7 mb 0.00 in0.0 mm 0.00 in0.0 mm 0.00 in0.0 mm
09:10 AM 56.1°F13.4°C 52.0°F11.1°C 86% 7.5 mph NE12.1 kmh NE 10.1 mph16.3 kmh 30.20 in1022.7 mb 0.00 in0.0 mm 0.00 in0.0 mm 0.00 in0.0 mm
09:00 AM 55.8°F13.2°C 51.9°F11.1°C 87% 6.9 mph NE11.1 kmh NE 10.1 mph16.3 kmh 30.20 in1022.7 mb 0.00 in0.0 mm 0.00 in0.0 mm 0.00 in0.0 mm
08:50 AM 55.6°F13.1°C 51.8°F11.0°C 87% 6.2 mph NE10.0 kmh NE 8.4 mph13.5 kmh 30.20 in1022.7 mb 0.00 in0.0 mm 0.00 in0.0 mm 0.00 in0.0 mm
08:40 AM 55.6°F13.1°C 51.8°F11.0°C 87% 6.9 mph NE11.1 kmh NE 8.4 mph13.5 kmh 30.21 in1023.0 mb 0.00 in0.0 mm 0.00 in0.0 mm 0.00 in0.0 mm
08:30 AM 55.6°F13.1°C 51.8°F11.0°C 87% 6.7 mph NNE10.8 kmh NNE 7.6 mph12.2 kmh 30.20 in1022.7 mb 0.00 in0.0 mm 0.00 in0.0 mm 0.00 in0.0 mm
08:20 AM 55.4°F13.0°C 51.6°F10.9°C 87% 6.5 mph NE10.5 kmh NE 6.6 mph10.6 kmh 30.21 in1023.0 mb 0.00 in0.0 mm 0.00 in0.0 mm 0.00 in0.0 mm
08:10 AM 55.2°F12.9°C 51.4°F10.8°C 87% 6.0 mph NE9.7 kmh NE 6.6 mph10.6 kmh 30.19 in1022.4 mb 0.00 in0.0 mm 0.00 in0.0 mm 0.00 in0.0 mm
08:00 AM 55.0°F12.8°C 51.5°F10.8°C 88% 6.4 mph NE10.3 kmh NE 8.4 mph13.5 kmh 30.19 in1022.4 mb 0.00 in0.0 mm 0.00 in0.0 mm 0.00 in0.0 mm
07:50 AM 54.9°F12.7°C 51.4°F10.8°C 88% 7.4 mph NNE11.9 kmh NNE 8.4 mph13.5 kmh 30.19 in1022.4 mb 0.00 in0.0 mm 0.00 in0.0 mm 0.00 in0.0 mm
07:40 AM 54.3°F12.4°C 51.7°F10.9°C 91% 6.3 mph NNE10.1 kmh NNE 8.4 mph13.5 kmh 30.19 in1022.4 mb 0.00 in0.0 mm 0.00 in0.0 mm 0.00 in0.0 mm
07:30 AM 53.4°F11.9°C 51.2°F10.7°C 92% 6.0 mph N9.7 kmh N 5.9 mph9.5 kmh 30.19 in1022.4 mb 0.00 in0.0 mm 0.00 in0.0 mm 0.00 in0.0 mm
07:20 AM 52.9°F11.6°C 50.6°F10.3°C 92% 6.9 mph NE11.1 kmh NE 8.4 mph13.5 kmh 30.19 in1022.4 mb 0.00 in0.0 mm 0.00 in0.0 mm 0.00 in0.0 mm
07:10 AM 52.9°F11.6°C 50.6°F10.3°C 92% 6.0 mph NNE9.7 kmh NNE 6.6 mph10.6 kmh 30.19 in1022.4 mb 0.00 in0.0 mm 0.00 in0.0 mm 0.00 in0.0 mm
07:00 AM 52.7°F11.5°C 50.7°F10.4°C 93% 6.1 mph NE9.8 kmh NE 6.6 mph10.6 kmh 30.18 in1022.0 mb 0.00 in0.0 mm 0.00 in0.0 mm 0.00 in0.0 mm
06:50 AM 52.3°F11.3°C 51.0°F10.6°C 95% 5.8 mph NNE9.3 kmh NNE 5.9 mph9.5 kmh 30.19 in1022.4 mb 0.00 in0.0 mm 0.00 in0.0 mm 0.00 in0.0 mm
06:40 AM 52.0°F11.1°C 51.7°F10.9°C 99% 6.3 mph NNE10.1 kmh NNE 8.4 mph13.5 kmh 30.19 in1022.4 mb 0.00 in0.0 mm 0.00 in0.0 mm 0.00 in0.0 mm
06:30 AM 51.6°F10.9°C 51.6°F10.9°C 100% 6.0 mph N9.7 kmh N 5.9 mph9.5 kmh 30.18 in1022.0 mb 0.00 in0.0 mm 0.00 in0.0 mm 0.00 in0.0 mm
06:20 AM 51.3°F10.7°C 51.3°F10.7°C 100% 7.0 mph NE11.3 kmh NE 8.4 mph13.5 kmh 30.19 in1022.4 mb 0.00 in0.0 mm 0.00 in0.0 mm 0.00 in0.0 mm
06:10 AM 50.7°F10.4°C 50.7°F10.4°C 100% 6.6 mph NE10.6 kmh NE 5.9 mph9.5 kmh 30.18 in1022.0 mb 0.00 in0.0 mm 0.00 in0.0 mm 0.00 in0.0 mm
06:00 AM 50.5°F10.3°C 50.5°F10.3°C 100% 5.6 mph NNE9.0 kmh NNE 6.6 mph10.6 kmh 30.18 in1022.0 mb 0.00 in0.0 mm 0.00 in0.0 mm 0.00 in0.0 mm
05:50 AM 50.5°F10.3°C 50.5°F10.3°C 100% 5.3 mph NE8.5 kmh NE 6.6 mph10.6 kmh 30.18 in1022.0 mb 0.00 in0.0 mm 0.00 in0.0 mm 0.00 in0.0 mm
05:40 AM 50.4°F10.2°C 50.4°F10.2°C 100% 4.5 mph NNE7.2 kmh NNE 4.9 mph7.9 kmh 30.18 in1022.0 mb 0.00 in0.0 mm 0.00 in0.0 mm 0.00 in0.0 mm
05:30 AM 50.0°F10.0°C 50.0°F10.0°C 100% 3.4 mph NNE5.5 kmh NNE 4.2 mph6.8 kmh 30.18 in1022.0 mb 0.00 in0.0 mm 0.00 in0.0 mm 0.00 in0.0 mm
05:20 AM 49.8°F9.9°C 49.8°F9.9°C 100% 3.4 mph NE5.5 kmh NE 4.2 mph6.8 kmh 30.18 in1022.0 mb 0.00 in0.0 mm 0.00 in0.0 mm 0.00 in0.0 mm
05:10 AM 49.6°F9.8°C 49.6°F9.8°C 100% 3.8 mph N6.1 kmh N 4.2 mph6.8 kmh 30.17 in1021.7 mb 0.00 in0.0 mm 0.00 in0.0 mm 0.00 in0.0 mm
05:00 AM 49.3°F9.6°C 49.3°F9.6°C 100% 3.0 mph NNE4.8 kmh NNE 3.4 mph5.5 kmh 30.17 in1021.7 mb 0.00 in0.0 mm 0.00 in0.0 mm 0.00 in0.0 mm
04:50 AM 49.3°F9.6°C 49.3°F9.6°C 100% 3.4 mph NNE5.5 kmh NNE 3.4 mph5.5 kmh 30.17 in1021.7 mb 0.00 in0.0 mm 0.00 in0.0 mm 0.00 in0.0 mm
04:40 AM 49.1°F9.5°C 49.1°F9.5°C 100% 4.2 mph NNE6.8 kmh NNE 4.9 mph7.9 kmh 30.17 in1021.7 mb 0.00 in0.0 mm 0.00 in0.0 mm 0.00 in0.0 mm
04:30 AM 49.3°F9.6°C 49.3°F9.6°C 100% 3.0 mph NE4.8 kmh NE 4.2 mph6.8 kmh 30.16 in1021.3 mb 0.00 in0.0 mm 0.00 in0.0 mm 0.00 in0.0 mm
04:20 AM 49.1°F9.5°C 49.1°F9.5°C 100% 4.3 mph NE6.9 kmh NE 4.9 mph7.9 kmh 30.17 in1021.7 mb 0.00 in0.0 mm 0.00 in0.0 mm 0.00 in0.0 mm
04:10 AM 49.1°F9.5°C 49.1°F9.5°C 100% 4.3 mph NE6.9 kmh NE 4.9 mph7.9 kmh 30.16 in1021.3 mb 0.00 in0.0 mm 0.00 in0.0 mm 0.00 in0.0 mm
04:00 AM 49.1°F9.5°C 49.1°F9.5°C 100% 4.9 mph NE7.9 kmh NE 4.9 mph7.9 kmh 30.16 in1021.3 mb 0.00 in0.0 mm 0.00 in0.0 mm 0.00 in0.0 mm
03:50 AM 49.1°F9.5°C 49.1°F9.5°C 100% 4.1 mph NE6.6 kmh NE 4.2 mph6.8 kmh 30.16 in1021.3 mb 0.00 in0.0 mm 0.00 in0.0 mm 0.00 in0.0 mm
03:40 AM 48.9°F9.4°C 48.9°F9.4°C 100% 3.0 mph NE4.8 kmh NE 4.2 mph6.8 kmh 30.16 in1021.3 mb 0.00 in0.0 mm 0.00 in0.0 mm 0.00 in0.0 mm
03:30 AM 49.1°F9.5°C 49.1°F9.5°C 100% 4.0 mph NE6.4 kmh NE 4.9 mph7.9 kmh 30.17 in1021.7 mb 0.00 in0.0 mm 0.00 in0.0 mm 0.00 in0.0 mm
03:20 AM 49.1°F9.5°C 49.1°F9.5°C 100% 3.7 mph NE6.0 kmh NE 4.9 mph7.9 kmh 30.16 in1021.3 mb 0.00 in0.0 mm 0.00 in0.0 mm 0.00 in0.0 mm
03:10 AM 49.1°F9.5°C 49.1°F9.5°C 100% 3.4 mph NE5.5 kmh NE 4.2 mph6.8 kmh 30.16 in1021.3 mb 0.00 in0.0 mm 0.00 in0.0 mm 0.00 in0.0 mm
03:00 AM 49.3°F9.6°C 49.3°F9.6°C 100% 3.5 mph NNE5.6 kmh NNE 4.2 mph6.8 kmh 30.16 in1021.3 mb 0.00 in0.0 mm 0.00 in0.0 mm 0.00 in0.0 mm
02:50 AM 49.5°F9.7°C 49.5°F9.7°C 100% 2.9 mph NNE4.7 kmh NNE 4.2 mph6.8 kmh 30.17 in1021.7 mb 0.00 in0.0 mm 0.00 in0.0 mm 0.00 in0.0 mm
02:40 AM 49.3°F9.6°C 49.3°F9.6°C 100% 2.5 mph N4.0 kmh N 2.5 mph4.0 kmh 30.17 in1021.7 mb 0.00 in0.0 mm 0.00 in0.0 mm 0.00 in0.0 mm
02:30 AM 49.1°F9.5°C 49.1°F9.5°C 100% 3.0 mph NE4.8 kmh NE 4.9 mph7.9 kmh 30.17 in1021.7 mb 0.00 in0.0 mm 0.00 in0.0 mm 0.00 in0.0 mm
02:20 AM 49.1°F9.5°C 49.1°F9.5°C 100% 3.2 mph N5.1 kmh N 4.2 mph6.8 kmh 30.17 in1021.7 mb 0.00 in0.0 mm 0.00 in0.0 mm 0.00 in0.0 mm
02:10 AM 49.1°F9.5°C 49.1°F9.5°C 100% 2.9 mph N4.7 kmh N 4.2 mph6.8 kmh 30.17 in1021.7 mb 0.00 in0.0 mm 0.00 in0.0 mm 0.00 in0.0 mm
02:00 AM 49.1°F9.5°C 49.1°F9.5°C 100% 3.2 mph NE5.1 kmh NE 4.2 mph6.8 kmh 30.17 in1021.7 mb 0.00 in0.0 mm 0.00 in0.0 mm 0.00 in0.0 mm
01:50 AM 49.1°F9.5°C 49.1°F9.5°C 100% 3.6 mph NNE5.8 kmh NNE 4.9 mph7.9 kmh 30.16 in1021.3 mb 0.00 in0.0 mm 0.00 in0.0 mm 0.00 in0.0 mm
01:40 AM 49.1°F9.5°C 49.1°F9.5°C 100% 3.2 mph N5.1 kmh N 3.4 mph5.5 kmh 30.17 in1021.7 mb 0.00 in0.0 mm 0.00 in0.0 mm 0.00 in0.0 mm
01:30 AM 49.3°F9.6°C 49.3°F9.6°C 100% 2.9 mph NNE4.7 kmh NNE 3.4 mph5.5 kmh 30.17 in1021.7 mb 0.00 in0.0 mm 0.00 in0.0 mm 0.00 in0.0 mm
01:20 AM 49.5°F9.7°C 49.5°F9.7°C 100% 3.6 mph NNE5.8 kmh NNE 4.2 mph6.8 kmh 30.17 in1021.7 mb 0.00 in0.0 mm 0.00 in0.0 mm 0.00 in0.0 mm
01:10 AM 49.6°F9.8°C 49.6°F9.8°C 100% 3.7 mph NNE6.0 kmh NNE 4.2 mph6.8 kmh 30.17 in1021.7 mb 0.00 in0.0 mm 0.00 in0.0 mm 0.00 in0.0 mm
01:00 AM 49.8°F9.9°C 49.8°F9.9°C 100% 2.9 mph NE4.7 kmh NE 4.2 mph6.8 kmh 30.17 in1021.7 mb 0.00 in0.0 mm 0.00 in0.0 mm 0.00 in0.0 mm
12:50 AM 50.0°F10.0°C 50.0°F10.0°C 100% 3.2 mph NNE5.1 kmh NNE 4.2 mph6.8 kmh 30.17 in1021.7 mb 0.00 in0.0 mm 0.00 in0.0 mm 0.00 in0.0 mm
12:40 AM 50.0°F10.0°C 50.0°F10.0°C 100% 3.0 mph NE4.8 kmh NE 3.4 mph5.5 kmh 30.16 in1021.3 mb 0.00 in0.0 mm 0.00 in0.0 mm 0.00 in0.0 mm
12:30 AM 50.2°F10.1°C 50.2°F10.1°C 100% 2.9 mph NNE4.7 kmh NNE 4.2 mph6.8 kmh 30.16 in1021.3 mb 0.00 in0.0 mm 0.00 in0.0 mm 0.00 in0.0 mm
12:20 AM 50.4°F10.2°C 50.4°F10.2°C 100% 3.2 mph NNE5.1 kmh NNE 4.2 mph6.8 kmh 30.16 in1021.3 mb 0.00 in0.0 mm 0.00 in0.0 mm 0.00 in0.0 mm
12:10 AM 50.5°F10.3°C 50.5°F10.3°C 100% 2.3 mph NNE3.7 kmh NNE 3.4 mph5.5 kmh 30.17 in1021.7 mb 0.00 in0.0 mm 0.00 in0.0 mm 0.00 in0.0 mm
12:00 AM 50.9°F10.5°C 50.9°F10.5°C 100% 4.2 mph NNE6.8 kmh NNE 5.9 mph9.5 kmh 30.17 in1021.7 mb 0.00 in0.0 mm 0.00 in0.0 mm 0.00 in0.0 mm